My Meet Scores
Kennedy Penar, St. Charles Gymnastics Academy - MyMeetScores.com
Top100 | Top Teams | Upcoming Meets | Completed Meets | Latest | Add Scores | Help| Support | Bookmark and Share

Kennedy Penar, St. Charles Gymnastics Academy
Personal Bests
LevelVault BarsBeamFloorAA
38.7009.000 8.2508.15034.100
48.5009.150 9.4259.35035.775
69.0509.325 9.6009.62537.050
78.7509.400 9.4509.45036.975
AllLevels8.4507.400 7.1508.52531.525
Meet Scores
Date Meet Team Session Level Division Vault Bars Beam Floor AA
2019-03-29 Illinois Level 7 & 8 State Meet St. Charles Gymnastics Academy 6 7 Jr C 8.750 21 9.400 7 9.450 5 9.375 11 36.975 6
2019-02-15 Women's Midwest Open St. Charles Gymnastics Academy 04 7 Junior A 0.000 12T 8.700 13 9.275 4 8.950 10 26.925 12
2019-01-11 St Jude Benefit Meet St. Charles Gymnastics Academy 4B 7 Jr A 0.000 17 0.000 17 0.000 17 9.450 9 9.450 17
2018-02-23 Kinetic Classic St. Charles Gymnastics Academy 9 6 Younger 9.050 24T 9.325 13 9.175 24T 9.500 15T 37.050 14T
2018-02-16 Big Classic St. Charles Gymnastics Academy 1A 6 Junior A 8.250 14 9.200 3T 9.450 5 9.250 10 36.150 7
2018-01-19 2018 SCEGA California Classic St. Charles Gymnastics Academy 1O 6 Child B 8.325 17 9.225 5 8.675 16 9.625 2 35.850 13T
2018-01-12 St Jude Benefit Meet St. Charles Gymnastics Academy 4C 6 JrA 7.750 15T 9.325 2 9.600 1 9.100 11T 35.775 6
2017-12-14 2017 Women's Hawaiian Pineapple Classic St. Charles Gymnastics Academy 9A 6 Ages10U 8.400 20T 9.050 8T 9.075 8T 9.425 6T 35.950 11
2017-11-17 SCGA Classic St. Charles Gymnastics Academy 3 6 JrA 9.025 8 8.950 4 9.275 3 9.400 3 36.650 3
2017-02-24 Kinetic Classic St. Charles Gymnastics Academy 5,6 4 All Ages 8.500 89T 8.900 59T 9.075 67T 9.125 40T 35.600 68
2017-02-10 IGI Chicago Style Gymnastics Meet St. Charles Gymnastics Academy 621L 4 JrA 8.150 15 9.150 7 9.225 6 9.250 3 35.775 6
2017-01-20 2017 Bravo Classic St. Charles Gymnastics Academy 07B 4 9yrs 7.900 19T 8.850 17T 9.425 6 9.350 3 35.525 9T
2017-01-13 St Jude Benefit Meet St. Charles Gymnastics Academy 3A 4 Jr B 7.850 11T 8.750 9T 7.750 16 9.125 3 33.475 12
2016-12-02 Ultimate Wish Classic St. Charles Gymnastics Academy 13 4 Jr B 8.375 15T 8.600 8T 8.875 10T 9.175 4 35.025 9
2016-02-05 St. Valentines Classic St. Charles Gymnastics Academy 1A AllLevels All Ages 8.450 41 7.400 66T 7.150 73 8.525 37T 31.525 63
2016-01-22 King Arthur Invitational St. Charles Gymnastics Academy S12 4 Jr.A 8.075 11 7.550 16 8.950 8 8.400 16 32.975 14
2016-01-08 St Jude Benefit Meet St. Charles Gymnastics Academy 4A 4 Jr A 7.550 21T 7.500 23 9.075 8T 8.500 13T 32.625 20
2015-12-17 2015 Hawaiian Pineapple Classic St. Charles Gymnastics Academy 1A 4 Ages 8U 7.400 19 7.675 11 7.850 21 8.950 8 31.875 15T
2015-12-04 2015 Ultimate Wish Classic St. Charles Gymnastics Academy 7 4 All 7.600 78 7.200 81 8.750 39 8.500 63 32.050 68
2015-02-20 Midwest Open 2015 St. Charles Gymnastics Academy 3A 3 6-7 8.700 14 9.000 6 8.250 12 8.150 12 34.100 11
Get your scores on
a t-shirt, pin, or hoodie

Order by December 13

www.lazysuits.com